createdAt,value
2023-04-30T00:00:52.559Z,1740.00
2023-04-30T00:01:52.719Z,1734.00
2023-04-30T00:02:52.742Z,1693.00
2023-04-30T00:03:52.733Z,1704.00
2023-04-30T00:04:52.701Z,1702.00
2023-04-30T00:05:52.789Z,1684.00
2023-04-30T00:06:52.801Z,1687.00
2023-04-30T00:07:52.875Z,1684.00
2023-04-30T00:08:52.892Z,1697.00
2023-04-30T00:09:53.279Z,1707.00
2023-04-30T00:10:53.004Z,1718.00
2023-04-30T00:11:53.045Z,1705.00
2023-04-30T00:12:53.066Z,1721.00
2023-04-30T00:13:53.177Z,1704.00
2023-04-30T00:14:53.154Z,1709.00
2023-04-30T00:15:53.265Z,1708.00
2023-04-30T00:16:53.300Z,1714.00
2023-04-30T00:17:53.421Z,1698.00
2023-04-30T00:18:53.363Z,1711.00
2023-04-30T00:19:53.521Z,1714.00
2023-04-30T00:20:53.456Z,1706.00
2023-04-30T00:21:53.512Z,1717.00
2023-04-30T00:22:53.563Z,1714.00
2023-04-30T00:23:53.588Z,1702.00
2023-04-30T00:24:53.657Z,1714.00
2023-04-30T00:25:53.730Z,1702.00
2023-04-30T00:26:53.755Z,1710.00
2023-04-30T00:27:53.857Z,1702.00
2023-04-30T00:28:53.838Z,1679.00
2023-04-30T00:29:54.125Z,1685.00
2023-04-30T00:30:53.940Z,1685.00
2023-04-30T00:31:53.978Z,1686.00
2023-04-30T00:32:53.985Z,1688.00
2023-04-30T00:33:53.935Z,1686.00
2023-04-30T00:34:53.938Z,1681.00
2023-04-30T00:35:53.908Z,1679.00
2023-04-30T00:36:53.880Z,1677.00
2023-04-30T00:37:53.905Z,1673.00
2023-04-30T00:38:53.884Z,1666.00
2023-04-30T00:39:54.063Z,1636.00
2023-04-30T00:40:53.906Z,1653.00
2023-04-30T00:41:53.913Z,1624.00
2023-04-30T00:42:53.986Z,1633.00
2023-04-30T00:43:54.021Z,1654.00
2023-04-30T00:44:54.057Z,1651.00
2023-04-30T00:45:54.145Z,1651.00
2023-04-30T00:46:54.164Z,1655.00
2023-04-30T00:47:54.282Z,1639.00
2023-04-30T00:48:54.300Z,1634.00
2023-04-30T00:49:54.506Z,1620.00
2023-04-30T00:50:54.378Z,1621.00
2023-04-30T00:51:54.409Z,1610.00
2023-04-30T00:52:54.478Z,1611.00
2023-04-30T00:53:54.520Z,1603.00
2023-04-30T00:54:54.585Z,1575.00
2023-04-30T00:55:54.627Z,1589.00
2023-04-30T00:56:54.720Z,1579.00
2023-04-30T00:57:54.727Z,1563.00
2023-04-30T00:58:54.794Z,1575.00
2023-04-30T00:59:55.105Z,1576.00
2023-04-30T01:00:54.933Z,1577.00
2023-04-30T01:01:54.975Z,1573.00
2023-04-30T01:02:55.113Z,1573.00
2023-04-30T01:03:55.045Z,1590.00
2023-04-30T01:04:55.107Z,1600.00
2023-04-30T01:05:55.185Z,1583.00
2023-04-30T01:06:55.211Z,1587.00
2023-04-30T01:07:55.255Z,1588.00
2023-04-30T01:08:55.286Z,1589.00
2023-04-30T01:09:55.585Z,1598.00
2023-04-30T01:10:55.402Z,1575.00
2023-04-30T01:11:55.433Z,1569.00
2023-04-30T01:12:55.507Z,1566.00
2023-04-30T01:13:55.537Z,1551.00
2023-04-30T01:14:55.600Z,1573.00
2023-04-30T01:15:55.676Z,1568.00
2023-04-30T01:16:55.685Z,1566.00
2023-04-30T01:17:55.847Z,1566.00
2023-04-30T01:18:56.025Z,1593.00
2023-04-30T01:19:56.009Z,1592.00
2023-04-30T01:20:55.890Z,1592.00
2023-04-30T01:21:55.926Z,1596.00
2023-04-30T01:22:55.996Z,1593.00
2023-04-30T01:23:56.033Z,1584.00
2023-04-30T01:24:56.072Z,1580.00
2023-04-30T01:25:56.120Z,1578.00
2023-04-30T01:26:56.150Z,1582.00
2023-04-30T01:27:56.207Z,1586.00
2023-04-30T01:28:56.273Z,1567.00
2023-04-30T01:29:56.552Z,1551.00
2023-04-30T01:30:56.352Z,1552.00
2023-04-30T01:31:56.269Z,1555.00
2023-04-30T01:32:56.262Z,1554.00
2023-04-30T01:33:56.252Z,1562.00
2023-04-30T01:34:56.268Z,1564.00
2023-04-30T01:35:56.196Z,1553.00
2023-04-30T01:36:56.190Z,1555.00
2023-04-30T01:37:56.156Z,1555.00
2023-04-30T01:38:56.162Z,1544.00
2023-04-30T01:39:56.579Z,1563.00
2023-04-30T01:40:56.134Z,1563.00
2023-04-30T01:41:56.109Z,1565.00
2023-04-30T01:42:56.101Z,1560.00
2023-04-30T01:43:56.105Z,1549.00
2023-04-30T01:44:56.150Z,1549.00
2023-04-30T01:45:56.259Z,1562.00
2023-04-30T01:46:56.274Z,1562.00
2023-04-30T01:47:56.343Z,1556.00
2023-04-30T01:48:56.351Z,1561.00
2023-04-30T01:49:56.740Z,1564.00
2023-04-30T01:50:56.450Z,1551.00
2023-04-30T01:51:56.511Z,1542.00
2023-04-30T01:52:56.559Z,1548.00
2023-04-30T01:53:56.593Z,1550.00
2023-04-30T01:54:56.678Z,1552.00
2023-04-30T01:55:56.705Z,1549.00
2023-04-30T01:56:56.809Z,1557.00
2023-04-30T01:57:56.820Z,1563.00
2023-04-30T01:58:56.877Z,1571.00
2023-04-30T01:59:56.980Z,1560.00
2023-04-30T02:00:57.005Z,1557.00
2023-04-30T02:01:57.148Z,1552.00
2023-04-30T02:02:57.185Z,1563.00
2023-04-30T02:03:57.260Z,1570.00
2023-04-30T02:04:57.198Z,1570.00
2023-04-30T02:05:57.259Z,1560.00
2023-04-30T02:06:57.344Z,1572.00
2023-04-30T02:07:57.351Z,1585.00
2023-04-30T02:08:57.432Z,1575.00
2023-04-30T02:09:57.542Z,1580.00
2023-04-30T02:10:57.586Z,1591.00
2023-04-30T02:11:57.605Z,1579.00
2023-04-30T02:12:57.668Z,1586.00
2023-04-30T02:13:57.703Z,1583.00
2023-04-30T02:14:57.790Z,1590.00
2023-04-30T02:15:57.856Z,1596.00
2023-04-30T02:16:57.888Z,1598.00
2023-04-30T02:17:57.935Z,1608.00
2023-04-30T02:18:57.985Z,1589.00
2023-04-30T02:19:58.036Z,1599.00
2023-04-30T02:20:58.073Z,1608.00
2023-04-30T02:21:58.197Z,1595.00
2023-04-30T02:22:58.195Z,1610.00
2023-04-30T02:23:58.278Z,1600.00
2023-04-30T02:24:58.330Z,1616.00
2023-04-30T02:25:58.374Z,1601.00
2023-04-30T02:26:58.458Z,1608.00
2023-04-30T02:27:58.471Z,1612.00
2023-04-30T02:28:58.557Z,1611.00
2023-04-30T02:29:58.589Z,1618.00
2023-04-30T02:30:58.659Z,1605.00
2023-04-30T02:31:58.783Z,1617.00
2023-04-30T02:32:58.777Z,1613.00
2023-04-30T02:33:58.843Z,1627.00
2023-04-30T02:34:58.894Z,1619.00
2023-04-30T02:35:59.186Z,1622.00
2023-04-30T02:36:59.001Z,1601.00
2023-04-30T02:37:59.124Z,1598.00
2023-04-30T02:38:59.106Z,1591.00
2023-04-30T02:39:59.180Z,1594.00
2023-04-30T02:40:59.229Z,1597.00
2023-04-30T02:41:59.324Z,1600.00
2023-04-30T02:42:59.350Z,1595.00
2023-04-30T02:43:59.383Z,1583.00
2023-04-30T02:44:59.473Z,1581.00
2023-04-30T02:45:59.569Z,1577.00
2023-04-30T02:46:59.595Z,1541.00
2023-04-30T02:47:59.660Z,1548.00
2023-04-30T02:48:59.704Z,1549.00
2023-04-30T02:49:59.732Z,1545.00
2023-04-30T02:50:59.780Z,1542.00
2023-04-30T02:51:59.870Z,1540.00
2023-04-30T02:52:59.899Z,1529.00
2023-04-30T02:53:59.983Z,1537.00
2023-04-30T02:55:00.032Z,1550.00
2023-04-30T02:56:00.146Z,1527.00
2023-04-30T02:57:00.169Z,1515.00
2023-04-30T02:58:00.227Z,1523.00
2023-04-30T02:59:00.278Z,1518.00
2023-04-30T03:00:00.338Z,1526.00
2023-04-30T03:01:00.408Z,1516.00
2023-04-30T03:02:00.466Z,1504.00
2023-04-30T03:03:00.622Z,1503.00
2023-04-30T03:04:00.487Z,1503.00
2023-04-30T03:05:00.525Z,1503.00
2023-04-30T03:06:00.506Z,1507.00
2023-04-30T03:07:00.523Z,1509.00
2023-04-30T03:08:00.467Z,1518.00
2023-04-30T03:09:00.485Z,1511.00
2023-04-30T03:10:00.474Z,1494.00
2023-04-30T03:11:00.447Z,1475.00
2023-04-30T03:12:00.460Z,1491.00
2023-04-30T03:13:00.437Z,1488.00
2023-04-30T03:14:00.470Z,1480.00
2023-04-30T03:15:00.538Z,1478.00
2023-04-30T03:16:00.645Z,1475.00
2023-04-30T03:17:00.685Z,1488.00
2023-04-30T03:18:00.751Z,1488.00
2023-04-30T03:19:00.806Z,1488.00
2023-04-30T03:20:00.860Z,1466.00
2023-04-30T03:21:00.984Z,1473.00
2023-04-30T03:22:00.997Z,1462.00
2023-04-30T03:23:01.049Z,1441.00
2023-04-30T03:24:01.133Z,1458.00
2023-04-30T03:25:01.185Z,1454.00
2023-04-30T03:26:01.226Z,1465.00
2023-04-30T03:27:01.295Z,1480.00
2023-04-30T03:28:01.360Z,1456.00
2023-04-30T03:29:01.397Z,1452.00
2023-04-30T03:30:01.460Z,1441.00
2023-04-30T03:31:01.552Z,1444.00
2023-04-30T03:32:01.789Z,1442.00
2023-04-30T03:33:01.723Z,1441.00
2023-04-30T03:34:01.743Z,1449.00
2023-04-30T03:35:01.813Z,1454.00
2023-04-30T03:36:01.864Z,1443.00
2023-04-30T03:37:01.922Z,1441.00
2023-04-30T03:38:01.989Z,1428.00
2023-04-30T03:39:02.044Z,1414.00
2023-04-30T03:40:02.025Z,1415.00
2023-04-30T03:41:02.028Z,1417.00
2023-04-30T03:42:02.037Z,1420.00
2023-04-30T03:43:02.010Z,1401.00
2023-04-30T03:44:02.024Z,1408.00
2023-04-30T03:45:02.012Z,1419.00
2023-04-30T03:46:02.053Z,1410.00
2023-04-30T03:47:01.985Z,1418.00
2023-04-30T03:48:02.077Z,1393.00
2023-04-30T03:49:02.024Z,1370.00
2023-04-30T03:50:02.152Z,1368.00
2023-04-30T03:51:02.194Z,1346.00
2023-04-30T03:52:02.328Z,1340.00
2023-04-30T03:53:02.373Z,1337.00
2023-04-30T03:54:02.554Z,1342.00
2023-04-30T03:55:02.491Z,1319.00
2023-04-30T03:56:02.555Z,1333.00
2023-04-30T03:57:02.621Z,1319.00
2023-04-30T03:58:02.732Z,1335.00
2023-04-30T03:59:02.722Z,1314.00
2023-04-30T04:00:02.778Z,1332.00
2023-04-30T04:01:02.829Z,1332.00
2023-04-30T04:02:02.992Z,1327.00
2023-04-30T04:03:02.990Z,1349.00
2023-04-30T04:04:02.983Z,1349.00
2023-04-30T04:05:03.037Z,1341.00
2023-04-30T04:06:03.000Z,1342.00
2023-04-30T04:07:02.960Z,1339.00
2023-04-30T04:08:02.968Z,1330.00
2023-04-30T04:09:02.962Z,1316.00
2023-04-30T04:10:02.973Z,1315.00
2023-04-30T04:11:02.966Z,1330.00
2023-04-30T04:12:02.980Z,1325.00
2023-04-30T04:13:03.060Z,1315.00
2023-04-30T04:14:03.119Z,1304.00
2023-04-30T04:15:03.201Z,1321.00
2023-04-30T04:16:03.263Z,1319.00
2023-04-30T04:17:03.289Z,1320.00
2023-04-30T04:18:03.525Z,1312.00
2023-04-30T04:19:03.435Z,1312.00
2023-04-30T04:20:03.521Z,1310.00
2023-04-30T04:21:03.506Z,1311.00
2023-04-30T04:22:03.511Z,1312.00
2023-04-30T04:23:03.521Z,1312.00
2023-04-30T04:24:03.511Z,1317.00
2023-04-30T04:25:03.550Z,1318.00
2023-04-30T04:26:03.514Z,1311.00
2023-04-30T04:27:03.532Z,1318.00
2023-04-30T04:28:03.517Z,1320.00
2023-04-30T04:29:03.518Z,1321.00
2023-04-30T04:30:03.577Z,1309.00
2023-04-30T04:31:03.627Z,1309.00
2023-04-30T04:32:03.752Z,1302.00
2023-04-30T04:33:03.793Z,1301.00
2023-04-30T04:34:03.818Z,1303.00
2023-04-30T04:35:03.916Z,1297.00
2023-04-30T04:36:03.972Z,1303.00
2023-04-30T04:37:04.040Z,1295.00
2023-04-30T04:38:04.071Z,1290.00
2023-04-30T04:39:04.153Z,1286.00
2023-04-30T04:40:04.170Z,1287.00
2023-04-30T04:41:04.214Z,1293.00
2023-04-30T04:42:04.259Z,1282.00
2023-04-30T04:43:04.279Z,1287.00
2023-04-30T04:44:04.330Z,1286.00
2023-04-30T04:45:04.369Z,1285.00
2023-04-30T04:46:04.453Z,1297.00
2023-04-30T04:47:04.392Z,1277.00
2023-04-30T04:48:04.430Z,1281.00
2023-04-30T04:49:04.428Z,1266.00
2023-04-30T04:50:04.459Z,1282.00
2023-04-30T04:51:04.486Z,1280.00
2023-04-30T04:52:04.474Z,1277.00
2023-04-30T04:53:04.492Z,1277.00
2023-04-30T04:54:04.471Z,1260.00
2023-04-30T04:55:04.561Z,1267.00
2023-04-30T04:56:04.497Z,1268.00
2023-04-30T04:57:04.542Z,1269.00
2023-04-30T04:58:04.551Z,1278.00
2023-04-30T04:59:04.630Z,1274.00
2023-04-30T05:00:04.656Z,1281.00
2023-04-30T05:01:04.692Z,1276.00
2023-04-30T05:02:04.857Z,1275.00
2023-04-30T05:03:04.822Z,1268.00
2023-04-30T05:04:04.910Z,1273.00
2023-04-30T05:05:04.765Z,1273.00
2023-04-30T05:06:04.787Z,1273.00
2023-04-30T05:07:04.782Z,1262.00
2023-04-30T05:08:04.739Z,1266.00
2023-04-30T05:09:04.735Z,1266.00
2023-04-30T05:10:04.729Z,1246.00
2023-04-30T05:11:04.711Z,1198.00
2023-04-30T05:12:04.724Z,1127.00
2023-04-30T05:13:04.712Z,1121.00
2023-04-30T05:14:04.684Z,1093.00
2023-04-30T05:15:04.692Z,1026.00
2023-04-30T05:16:04.696Z,984.00
2023-04-30T05:17:04.687Z,854.00
2023-04-30T05:18:04.659Z,771.00
2023-04-30T05:19:04.660Z,733.00
2023-04-30T05:20:04.663Z,677.00
2023-04-30T05:21:04.654Z,648.00
2023-04-30T05:22:04.658Z,636.00
2023-04-30T05:23:04.649Z,638.00
2023-04-30T05:24:04.650Z,651.00
2023-04-30T05:25:04.661Z,653.00
2023-04-30T05:26:04.665Z,663.00
2023-04-30T05:27:04.636Z,678.00
2023-04-30T05:28:04.672Z,693.00
2023-04-30T05:29:04.648Z,707.00
2023-04-30T05:30:04.637Z,721.00
2023-04-30T05:31:04.635Z,733.00
2023-04-30T05:32:04.717Z,735.00
2023-04-30T05:33:04.759Z,740.00
2023-04-30T05:34:04.628Z,753.00
2023-04-30T05:35:04.634Z,769.00
2023-04-30T05:36:04.616Z,800.00
2023-04-30T05:37:04.632Z,830.00
2023-04-30T05:38:04.723Z,813.00
2023-04-30T05:39:04.643Z,825.00
2023-04-30T05:40:04.607Z,816.00
2023-04-30T05:41:04.613Z,836.00
2023-04-30T05:42:04.589Z,837.00
2023-04-30T05:43:04.593Z,857.00
2023-04-30T05:44:04.580Z,854.00
2023-04-30T05:45:04.587Z,865.00
2023-04-30T05:46:04.654Z,878.00
2023-04-30T05:47:04.654Z,882.00
2023-04-30T05:48:04.697Z,900.00
2023-04-30T05:49:04.704Z,892.00
2023-04-30T05:50:04.758Z,890.00
2023-04-30T05:51:04.797Z,900.00
2023-04-30T05:52:05.120Z,908.00
2023-04-30T05:53:04.887Z,878.00
2023-04-30T05:54:04.951Z,838.00
2023-04-30T05:55:04.971Z,813.00
2023-04-30T05:56:05.023Z,782.00
2023-04-30T05:57:05.064Z,764.00
2023-04-30T05:58:05.024Z,748.00
2023-04-30T05:59:05.030Z,700.00
2023-04-30T06:00:05.028Z,649.00
2023-04-30T06:01:05.026Z,636.00
2023-04-30T06:02:05.063Z,624.00
2023-04-30T06:03:05.051Z,608.00
2023-04-30T06:04:05.040Z,586.00
2023-04-30T06:05:05.038Z,548.00
2023-04-30T06:06:05.083Z,547.00
2023-04-30T06:07:05.017Z,549.00
2023-04-30T06:08:05.006Z,538.00
2023-04-30T06:09:05.096Z,503.00
2023-04-30T06:10:05.096Z,502.00
2023-04-30T06:11:05.029Z,503.00
2023-04-30T06:12:05.039Z,508.00
2023-04-30T06:13:05.062Z,500.00
2023-04-30T06:14:05.029Z,498.00
2023-04-30T06:15:05.056Z,501.00
2023-04-30T06:16:05.074Z,504.00
2023-04-30T06:17:05.053Z,514.00
2023-04-30T06:18:05.094Z,500.00
2023-04-30T06:19:05.117Z,497.00
2023-04-30T06:20:05.058Z,500.00
2023-04-30T06:21:05.054Z,494.00
2023-04-30T06:22:05.071Z,501.00
2023-04-30T06:23:05.062Z,466.00
2023-04-30T06:24:05.055Z,500.00
2023-04-30T06:25:05.063Z,502.00
2023-04-30T06:26:05.054Z,523.00
2023-04-30T06:27:05.054Z,535.00
2023-04-30T06:28:05.069Z,522.00
2023-04-30T06:29:05.051Z,517.00
2023-04-30T06:30:05.039Z,521.00
2023-04-30T06:31:05.096Z,514.00
2023-04-30T06:32:07.724Z,512.00
2023-04-30T06:33:05.074Z,516.00
2023-04-30T06:34:05.051Z,505.00
2023-04-30T06:35:05.078Z,517.00
2023-04-30T06:36:05.050Z,541.00
2023-04-30T06:37:05.084Z,509.00
2023-04-30T06:38:05.050Z,503.00
2023-04-30T06:39:05.078Z,513.00
2023-04-30T06:40:05.119Z,511.00
2023-04-30T06:41:05.067Z,527.00
2023-04-30T06:42:05.080Z,530.00
2023-04-30T06:43:05.070Z,527.00
2023-04-30T06:44:05.083Z,528.00
2023-04-30T06:45:05.087Z,526.00
2023-04-30T06:46:05.172Z,503.00
2023-04-30T06:47:05.115Z,515.00
2023-04-30T06:48:05.147Z,515.00
2023-04-30T06:49:05.106Z,518.00
2023-04-30T06:50:05.099Z,525.00
2023-04-30T06:51:05.116Z,534.00
2023-04-30T06:52:05.121Z,530.00
2023-04-30T06:53:05.145Z,510.00
2023-04-30T06:54:05.111Z,531.00
2023-04-30T06:55:05.203Z,526.00
2023-04-30T06:56:05.125Z,503.00
2023-04-30T06:57:05.154Z,513.00
2023-04-30T06:58:05.161Z,505.00
2023-04-30T06:59:05.144Z,521.00
2023-04-30T07:00:05.165Z,520.00
2023-04-30T07:01:05.181Z,526.00
2023-04-30T07:02:05.150Z,512.00
2023-04-30T07:03:05.247Z,517.00
2023-04-30T07:04:05.186Z,518.00
2023-04-30T07:05:05.224Z,503.00
2023-04-30T07:06:05.218Z,500.00
2023-04-30T07:07:05.201Z,503.00
2023-04-30T07:08:05.207Z,504.00
2023-04-30T07:09:05.211Z,507.00
2023-04-30T07:10:05.200Z,511.00
2023-04-30T07:11:05.228Z,526.00
2023-04-30T07:12:05.247Z,516.00
2023-04-30T07:13:05.253Z,519.00
2023-04-30T07:14:05.353Z,507.00
2023-04-30T07:15:05.240Z,510.00
2023-04-30T07:16:05.314Z,520.00
2023-04-30T07:17:05.278Z,502.00
2023-04-30T07:18:05.330Z,505.00
2023-04-30T07:19:05.257Z,504.00
2023-04-30T07:20:05.263Z,509.00
2023-04-30T07:21:05.308Z,519.00
2023-04-30T07:22:05.629Z,519.00
2023-04-30T07:23:05.262Z,519.00
2023-04-30T07:24:05.299Z,514.00
2023-04-30T07:25:05.285Z,522.00
2023-04-30T07:26:05.291Z,530.00
2023-04-30T07:27:05.314Z,530.00
2023-04-30T07:28:05.330Z,533.00
2023-04-30T07:29:05.274Z,525.00
2023-04-30T07:30:05.280Z,536.00
2023-04-30T07:31:05.356Z,523.00
2023-04-30T07:32:05.298Z,519.00
2023-04-30T07:33:05.365Z,516.00
2023-04-30T07:34:05.341Z,524.00
2023-04-30T07:35:05.384Z,509.00
2023-04-30T07:36:05.351Z,499.00
2023-04-30T07:37:05.354Z,500.00
2023-04-30T07:38:05.351Z,501.00
2023-04-30T07:39:05.385Z,514.00
2023-04-30T07:40:05.390Z,521.00
2023-04-30T07:41:05.398Z,522.00
2023-04-30T07:42:05.428Z,526.00
2023-04-30T07:43:05.405Z,516.00
2023-04-30T07:44:05.469Z,509.00
2023-04-30T07:45:05.435Z,520.00
2023-04-30T07:46:05.451Z,521.00
2023-04-30T07:47:05.478Z,516.00
2023-04-30T07:48:05.500Z,506.00
2023-04-30T07:49:05.462Z,519.00
2023-04-30T07:50:05.490Z,507.00
2023-04-30T07:51:05.479Z,508.00
2023-04-30T07:52:05.486Z,504.00
2023-04-30T07:53:05.543Z,512.00
2023-04-30T07:54:05.511Z,515.00
2023-04-30T07:55:05.520Z,508.00
2023-04-30T07:56:05.517Z,510.00
2023-04-30T07:57:05.525Z,524.00
2023-04-30T07:58:05.566Z,531.00
2023-04-30T07:59:05.528Z,537.00
2023-04-30T08:00:05.553Z,514.00
2023-04-30T08:01:05.564Z,516.00
2023-04-30T08:02:05.612Z,504.00
2023-04-30T08:03:05.634Z,500.00
2023-04-30T08:04:05.721Z,522.00
2023-04-30T08:05:05.605Z,528.00
2023-04-30T08:06:05.620Z,529.00
2023-04-30T08:07:05.597Z,554.00
2023-04-30T08:08:05.608Z,549.00
2023-04-30T08:09:05.608Z,533.00
2023-04-30T08:10:05.657Z,539.00
2023-04-30T08:11:05.617Z,538.00
2023-04-30T08:12:05.630Z,539.00
2023-04-30T08:13:05.654Z,551.00
2023-04-30T08:14:05.635Z,551.00
2023-04-30T08:15:05.668Z,550.00
2023-04-30T08:16:05.668Z,548.00
2023-04-30T08:17:05.725Z,534.00
2023-04-30T08:18:05.823Z,537.00
2023-04-30T08:19:05.666Z,535.00
2023-04-30T08:20:05.662Z,546.00
2023-04-30T08:21:05.667Z,553.00
2023-04-30T08:22:05.675Z,560.00
2023-04-30T08:23:05.713Z,541.00
2023-04-30T08:24:05.777Z,552.00
2023-04-30T08:25:05.754Z,550.00
2023-04-30T08:26:05.740Z,561.00
2023-04-30T08:27:05.744Z,559.00
2023-04-30T08:28:05.747Z,514.00
2023-04-30T08:29:05.779Z,500.00
2023-04-30T08:30:05.816Z,513.00
2023-04-30T08:31:05.852Z,518.00
2023-04-30T08:32:06.034Z,521.00
2023-04-30T08:33:06.003Z,522.00
2023-04-30T08:34:06.060Z,529.00
2023-04-30T08:35:06.122Z,536.00
2023-04-30T08:36:06.088Z,530.00
2023-04-30T08:37:06.175Z,543.00
2023-04-30T08:38:06.212Z,555.00
2023-04-30T08:39:06.245Z,551.00
2023-04-30T08:40:06.315Z,549.00
2023-04-30T08:41:06.372Z,557.00
2023-04-30T08:42:06.415Z,564.00
2023-04-30T08:43:06.487Z,564.00
2023-04-30T08:44:08.421Z,587.00
2023-04-30T08:45:06.590Z,601.00
2023-04-30T08:46:06.673Z,603.00
2023-04-30T08:47:06.726Z,613.00
2023-04-30T08:48:06.799Z,625.00
2023-04-30T08:49:06.864Z,639.00
2023-04-30T08:50:06.866Z,653.00
2023-04-30T08:51:06.907Z,654.00
2023-04-30T08:52:06.950Z,677.00
2023-04-30T08:53:07.011Z,697.00
2023-04-30T08:54:07.063Z,707.00
2023-04-30T08:55:07.117Z,724.00
2023-04-30T08:56:07.148Z,772.00
2023-04-30T08:57:07.223Z,806.00
2023-04-30T08:58:07.683Z,925.00
2023-04-30T08:59:07.293Z,997.00
2023-04-30T09:00:07.364Z,974.00
2023-04-30T09:01:07.410Z,1009.00
2023-04-30T09:02:07.537Z,1013.00
2023-04-30T09:03:07.544Z,1033.00
2023-04-30T09:04:07.652Z,1062.00
2023-04-30T09:05:07.541Z,1086.00
2023-04-30T09:06:07.620Z,1101.00
2023-04-30T09:07:09.617Z,1130.00
2023-04-30T09:08:07.681Z,1155.00
2023-04-30T09:09:07.686Z,1169.00
2023-04-30T09:10:07.718Z,1192.00
2023-04-30T09:11:07.758Z,1214.00
2023-04-30T09:12:07.772Z,1222.00
2023-04-30T09:13:07.805Z,1240.00
2023-04-30T09:14:07.840Z,1263.00
2023-04-30T09:15:07.864Z,1281.00
2023-04-30T09:16:07.950Z,1299.00
2023-04-30T09:17:07.938Z,1317.00
2023-04-30T09:18:08.066Z,1339.00
2023-04-30T09:19:07.987Z,1359.00
2023-04-30T09:20:08.009Z,1378.00
2023-04-30T09:21:08.035Z,1379.00
2023-04-30T09:22:07.993Z,1384.00
2023-04-30T09:23:07.982Z,1380.00
2023-04-30T09:24:07.990Z,1388.00
2023-04-30T09:25:07.931Z,1404.00
2023-04-30T09:26:07.894Z,1432.00
2023-04-30T09:27:07.923Z,1478.00
2023-04-30T09:28:07.886Z,1493.00
2023-04-30T09:29:08.229Z,1522.00
2023-04-30T09:30:07.833Z,1523.00
2023-04-30T09:31:07.854Z,1527.00
2023-04-30T09:32:07.818Z,1537.00
2023-04-30T09:33:10.745Z,1553.00
2023-04-30T09:34:07.812Z,1525.00
2023-04-30T09:35:07.759Z,1534.00
2023-04-30T09:36:07.732Z,1553.00
2023-04-30T09:37:07.735Z,1587.00
2023-04-30T09:38:07.725Z,1616.00
2023-04-30T09:39:10.345Z,1627.00
2023-04-30T09:40:07.736Z,1628.00
2023-04-30T09:41:07.670Z,1633.00
2023-04-30T09:42:07.651Z,1645.00
2023-04-30T09:43:07.648Z,1664.00
2023-04-30T09:44:07.618Z,1690.00
2023-04-30T09:45:07.683Z,1704.00
2023-04-30T09:46:07.591Z,1705.00
2023-04-30T09:47:07.707Z,1719.00
2023-04-30T09:48:16.544Z,1727.00
2023-04-30T09:49:08.602Z,1728.00
2023-04-30T09:50:07.636Z,1730.00
2023-04-30T09:51:07.512Z,1738.00
2023-04-30T09:52:07.519Z,1754.00
2023-04-30T09:53:07.518Z,1775.00
2023-04-30T09:54:07.486Z,1787.00
2023-04-30T09:55:07.491Z,1791.00
2023-04-30T09:56:07.456Z,1793.00
2023-04-30T09:57:07.457Z,1798.00
2023-04-30T09:58:07.480Z,1806.00
2023-04-30T09:59:07.430Z,1812.00
2023-04-30T10:00:07.426Z,1820.00
2023-04-30T10:01:07.468Z,1814.00
2023-04-30T10:02:07.398Z,1830.00
2023-04-30T10:03:07.428Z,1837.00
2023-04-30T10:04:07.381Z,1839.00
2023-04-30T10:05:07.363Z,1844.00
2023-04-30T10:06:07.454Z,1841.00
2023-04-30T10:07:07.351Z,1847.00
2023-04-30T10:08:07.304Z,1853.00
2023-04-30T10:09:07.284Z,1864.00
2023-04-30T10:10:07.272Z,1862.00
2023-04-30T10:11:07.256Z,1863.00
2023-04-30T10:12:07.211Z,1868.00
2023-04-30T10:13:07.748Z,1871.00
2023-04-30T10:14:07.179Z,1869.00
2023-04-30T10:15:07.183Z,1906.00
2023-04-30T10:16:07.197Z,1912.00
2023-04-30T10:17:07.149Z,1914.00
2023-04-30T10:18:07.239Z,1911.00
2023-04-30T10:19:07.115Z,1916.00
2023-04-30T10:20:07.085Z,1920.00
2023-04-30T10:21:07.089Z,1931.00
2023-04-30T10:22:07.052Z,1919.00
2023-04-30T10:23:07.039Z,1853.00
2023-04-30T10:24:06.988Z,1799.00
2023-04-30T10:25:06.994Z,1813.00
2023-04-30T10:26:06.970Z,1768.00
2023-04-30T10:27:07.713Z,1770.00
2023-04-30T10:28:07.213Z,1754.00
2023-04-30T10:29:06.889Z,1719.00
2023-04-30T10:30:06.898Z,1737.00
2023-04-30T10:31:06.900Z,1729.00
2023-04-30T10:32:06.941Z,1730.00
2023-04-30T10:33:06.942Z,1725.00
2023-04-30T10:34:06.936Z,1736.00
2023-04-30T10:35:06.971Z,1738.00
2023-04-30T10:36:06.944Z,1747.00
2023-04-30T10:37:06.945Z,1752.00
2023-04-30T10:38:06.975Z,1684.00
2023-04-30T10:39:06.978Z,1689.00
2023-04-30T10:40:06.983Z,1707.00
2023-04-30T10:41:07.071Z,1722.00
2023-04-30T10:42:07.014Z,1709.00
2023-04-30T10:43:07.020Z,1713.00
2023-04-30T10:44:07.052Z,1708.00
2023-04-30T10:45:07.057Z,1674.00
2023-04-30T10:46:07.086Z,1679.00
2023-04-30T10:47:07.107Z,1693.00
2023-04-30T10:48:07.360Z,1683.00
2023-04-30T10:49:07.101Z,1659.00
2023-04-30T10:50:07.136Z,1659.00
2023-04-30T10:51:07.139Z,1665.00
2023-04-30T10:52:07.172Z,1663.00
2023-04-30T10:53:07.180Z,1647.00
2023-04-30T10:54:07.210Z,1660.00
2023-04-30T10:55:07.272Z,1658.00
2023-04-30T10:56:07.254Z,1638.00
2023-04-30T10:57:07.249Z,1659.00
2023-04-30T10:58:07.276Z,1630.00
2023-04-30T10:59:07.287Z,1635.00
2023-04-30T11:00:07.289Z,1656.00
2023-04-30T11:01:07.331Z,1640.00
2023-04-30T11:02:07.324Z,1626.00
2023-04-30T11:03:07.465Z,1627.00
2023-04-30T11:04:07.366Z,1638.00
2023-04-30T11:05:07.522Z,1621.00
2023-04-30T11:06:07.436Z,1632.00
2023-04-30T11:07:07.409Z,1626.00
2023-04-30T11:08:07.433Z,1613.00
2023-04-30T11:09:07.490Z,1605.00
2023-04-30T11:10:07.468Z,1624.00
2023-04-30T11:11:07.472Z,1620.00
2023-04-30T11:12:07.510Z,1602.00
2023-04-30T11:13:07.528Z,1631.00
2023-04-30T11:14:07.523Z,1661.00
2023-04-30T11:15:07.551Z,1671.00
2023-04-30T11:16:07.566Z,1651.00
2023-04-30T11:17:07.589Z,1626.00
2023-04-30T11:18:07.738Z,1593.00
2023-04-30T11:19:08.580Z,1586.00
2023-04-30T11:20:07.657Z,1596.00
2023-04-30T11:21:07.665Z,1540.00
2023-04-30T11:22:07.706Z,1539.00
2023-04-30T11:23:07.713Z,1517.00
2023-04-30T11:24:07.746Z,1478.00
2023-04-30T11:25:07.739Z,1512.00
2023-04-30T11:26:07.775Z,1547.00
2023-04-30T11:27:07.813Z,1561.00
2023-04-30T11:28:07.784Z,1550.00
2023-04-30T11:29:07.829Z,1563.00
2023-04-30T11:30:07.782Z,1571.00
2023-04-30T11:31:07.930Z,1573.00
2023-04-30T11:32:07.810Z,1565.00
2023-04-30T11:33:07.858Z,1552.00
2023-04-30T11:34:07.902Z,1575.00
2023-04-30T11:35:07.927Z,1585.00
2023-04-30T11:36:07.930Z,1578.00
2023-04-30T11:37:07.900Z,1572.00
2023-04-30T11:38:08.009Z,1579.00
2023-04-30T11:39:08.061Z,1566.00
2023-04-30T11:40:07.948Z,1559.00
2023-04-30T11:41:07.966Z,1565.00
2023-04-30T11:42:07.971Z,1543.00
2023-04-30T11:43:08.009Z,1544.00
2023-04-30T11:44:07.936Z,1546.00
2023-04-30T11:45:07.939Z,1565.00
2023-04-30T11:46:07.963Z,1595.00
2023-04-30T11:47:08.112Z,1623.00
2023-04-30T11:48:07.929Z,1595.00
2023-04-30T11:49:07.941Z,1595.00
2023-04-30T11:50:07.873Z,1565.00
2023-04-30T11:51:07.852Z,1542.00
2023-04-30T11:52:07.858Z,1489.00
2023-04-30T11:53:07.856Z,1499.00
2023-04-30T11:54:07.808Z,1488.00
2023-04-30T11:55:07.773Z,1501.00
2023-04-30T11:56:07.776Z,1454.00
2023-04-30T11:57:07.762Z,1433.00
2023-04-30T11:58:07.749Z,1481.00
2023-04-30T11:59:07.723Z,1503.00
2023-04-30T12:00:07.702Z,1516.00
2023-04-30T12:01:07.814Z,1494.00
2023-04-30T12:02:07.756Z,1506.00
2023-04-30T12:03:07.783Z,1479.00
2023-04-30T12:04:07.738Z,1506.00
2023-04-30T12:05:07.637Z,1496.00
2023-04-30T12:06:07.689Z,1515.00
2023-04-30T12:07:07.578Z,1516.00
2023-04-30T12:08:07.581Z,1516.00
2023-04-30T12:09:07.540Z,1479.00
2023-04-30T12:10:07.545Z,1496.00
2023-04-30T12:11:07.481Z,1517.00
2023-04-30T12:12:07.475Z,1502.00
2023-04-30T12:13:07.462Z,1497.00